sensor_id;sensor_type;location;lat;lon;timestamp;P1;durP1;ratioP1;P2;durP2;ratioP2
16393;SDS011;8306;51.128;4.476;2022-12-10T00:01:52;63.97;;;27.50;;
16393;SDS011;8306;51.128;4.476;2022-12-10T00:04:19;53.97;;;25.53;;
16393;SDS011;8306;51.128;4.476;2022-12-10T00:06:46;60.00;;;25.53;;
16393;SDS011;8306;51.128;4.476;2022-12-10T00:09:13;52.57;;;24.57;;
16393;SDS011;8306;51.128;4.476;2022-12-10T00:11:38;53.13;;;24.97;;
16393;SDS011;8306;51.128;4.476;2022-12-10T00:14:04;64.13;;;24.97;;
16393;SDS011;8306;51.128;4.476;2022-12-10T00:16:31;50.53;;;23.17;;
16393;SDS011;8306;51.128;4.476;2022-12-10T00:18:57;57.53;;;25.17;;
16393;SDS011;8306;51.128;4.476;2022-12-10T00:21:26;67.27;;;26.23;;
16393;SDS011;8306;51.128;4.476;2022-12-10T00:23:51;54.27;;;25.83;;
16393;SDS011;8306;51.128;4.476;2022-12-10T00:26:20;68.60;;;27.13;;
16393;SDS011;8306;51.128;4.476;2022-12-10T00:28:43;72.57;;;28.20;;
16393;SDS011;8306;51.128;4.476;2022-12-10T00:31:11;80.10;;;28.20;;
16393;SDS011;8306;51.128;4.476;2022-12-10T00:33:37;60.30;;;26.00;;
16393;SDS011;8306;51.128;4.476;2022-12-10T00:36:10;49.80;;;23.90;;
16393;SDS011;8306;51.128;4.476;2022-12-10T00:38:35;71.47;;;28.17;;
16393;SDS011;8306;51.128;4.476;2022-12-10T00:41:02;70.40;;;27.80;;
16393;SDS011;8306;51.128;4.476;2022-12-10T00:43:28;54.80;;;25.90;;
16393;SDS011;8306;51.128;4.476;2022-12-10T00:45:55;67.83;;;28.30;;
16393;SDS011;8306;51.128;4.476;2022-12-10T00:48:21;54.83;;;27.20;;
16393;SDS011;8306;51.128;4.476;2022-12-10T00:50:54;72.03;;;28.93;;
16393;SDS011;8306;51.128;4.476;2022-12-10T00:53:26;69.17;;;29.27;;
16393;SDS011;8306;51.128;4.476;2022-12-10T00:55:52;70.27;;;28.23;;
16393;SDS011;8306;51.128;4.476;2022-12-10T00:58:19;80.30;;;30.33;;
16393;SDS011;8306;51.128;4.476;2022-12-10T01:00:45;67.30;;;29.33;;
16393;SDS011;8306;51.128;4.476;2022-12-10T01:03:12;67.37;;;28.30;;
16393;SDS011;8306;51.128;4.476;2022-12-10T01:05:38;73.67;;;28.93;;
16393;SDS011;8306;51.128;4.476;2022-12-10T01:08:04;57.00;;;27.30;;
16393;SDS011;8306;51.128;4.476;2022-12-10T01:10:31;73.33;;;29.50;;
16393;SDS011;8306;51.128;4.476;2022-12-10T01:12:57;79.27;;;29.63;;
16393;SDS011;8306;51.128;4.476;2022-12-10T01:15:24;76.27;;;31.37;;
16393;SDS011;8306;51.128;4.476;2022-12-10T01:17:50;69.40;;;30.93;;
16393;SDS011;8306;51.128;4.476;2022-12-10T01:20:17;65.87;;;28.37;;
16393;SDS011;8306;51.128;4.476;2022-12-10T01:22:43;73.97;;;30.40;;
16393;SDS011;8306;51.128;4.476;2022-12-10T01:25:10;72.60;;;31.03;;
16393;SDS011;8306;51.128;4.476;2022-12-10T01:27:36;71.73;;;28.43;;
16393;SDS011;8306;51.128;4.476;2022-12-10T01:30:03;74.50;;;28.57;;
16393;SDS011;8306;51.128;4.476;2022-12-10T01:32:29;98.20;;;32.20;;
16393;SDS011;8306;51.128;4.476;2022-12-10T01:34:56;86.03;;;31.20;;
16393;SDS011;8306;51.128;4.476;2022-12-10T01:37:22;87.33;;;30.50;;
16393;SDS011;8306;51.128;4.476;2022-12-10T01:39:49;79.97;;;30.37;;
16393;SDS011;8306;51.128;4.476;2022-12-10T01:42:15;87.10;;;29.93;;
16393;SDS011;8306;51.128;4.476;2022-12-10T01:47:08;69.83;;;28.33;;
16393;SDS011;8306;51.128;4.476;2022-12-10T01:49:38;68.47;;;27.67;;
16393;SDS011;8306;51.128;4.476;2022-12-10T01:52:05;63.80;;;26.73;;
16393;SDS011;8306;51.128;4.476;2022-12-10T01:54:32;78.73;;;27.33;;
16393;SDS011;8306;51.128;4.476;2022-12-10T01:59:26;76.47;;;27.60;;
16393;SDS011;8306;51.128;4.476;2022-12-10T02:04:31;70.00;;;26.57;;
16393;SDS011;8306;51.128;4.476;2022-12-10T02:07:06;92.80;;;29.30;;
16393;SDS011;8306;51.128;4.476;2022-12-10T02:09:43;73.97;;;26.60;;
16393;SDS011;8306;51.128;4.476;2022-12-10T02:12:12;105.97;;;29.37;;
16393;SDS011;8306;51.128;4.476;2022-12-10T02:17:47;109.27;;;31.43;;
16393;SDS011;8306;51.128;4.476;2022-12-10T02:20:25;76.33;;;28.03;;
16393;SDS011;8306;51.128;4.476;2022-12-10T02:22:51;84.33;;;28.07;;
16393;SDS011;8306;51.128;4.476;2022-12-10T02:25:17;90.57;;;26.87;;
16393;SDS011;8306;51.128;4.476;2022-12-10T02:30:12;110.50;;;30.60;;
16393;SDS011;8306;51.128;4.476;2022-12-10T02:32:39;96.80;;;29.97;;
16393;SDS011;8306;51.128;4.476;2022-12-10T02:35:06;121.80;;;30.80;;
16393;SDS011;8306;51.128;4.476;2022-12-10T02:37:33;101.93;;;30.97;;
16393;SDS011;8306;51.128;4.476;2022-12-10T02:39:59;101.23;;;29.83;;
16393;SDS011;8306;51.128;4.476;2022-12-10T02:42:24;109.57;;;30.60;;
16393;SDS011;8306;51.128;4.476;2022-12-10T02:44:51;93.17;;;30.23;;
16393;SDS011;8306;51.128;4.476;2022-12-10T02:47:17;98.13;;;30.23;;
16393;SDS011;8306;51.128;4.476;2022-12-10T02:49:44;118.47;;;31.17;;
16393;SDS011;8306;51.128;4.476;2022-12-10T02:52:13;104.07;;;29.20;;
16393;SDS011;8306;51.128;4.476;2022-12-10T02:54:41;83.73;;;26.80;;
16393;SDS011;8306;51.128;4.476;2022-12-10T02:57:08;94.07;;;30.73;;
16393;SDS011;8306;51.128;4.476;2022-12-10T02:59:51;103.67;;;32.27;;
16393;SDS011;8306;51.128;4.476;2022-12-10T03:02:29;120.67;;;33.87;;
16393;SDS011;8306;51.128;4.476;2022-12-10T03:04:53;104.83;;;32.20;;
16393;SDS011;8306;51.128;4.476;2022-12-10T03:07:22;98.40;;;30.43;;
16393;SDS011;8306;51.128;4.476;2022-12-10T03:09:45;76.77;;;28.20;;
16393;SDS011;8306;51.128;4.476;2022-12-10T03:12:33;97.27;;;30.60;;
16393;SDS011;8306;51.128;4.476;2022-12-10T03:14:57;111.27;;;31.93;;
16393;SDS011;8306;51.128;4.476;2022-12-10T03:17:26;96.40;;;29.90;;
16393;SDS011;8306;51.128;4.476;2022-12-10T03:19:51;93.30;;;29.43;;
16393;SDS011;8306;51.128;4.476;2022-12-10T03:22:18;103.60;;;30.93;;
16393;SDS011;8306;51.128;4.476;2022-12-10T03:24:44;94.10;;;29.47;;
16393;SDS011;8306;51.128;4.476;2022-12-10T03:27:11;100.87;;;29.67;;
16393;SDS011;8306;51.128;4.476;2022-12-10T03:29:39;91.83;;;28.60;;
16393;SDS011;8306;51.128;4.476;2022-12-10T03:32:04;93.83;;;29.23;;
16393;SDS011;8306;51.128;4.476;2022-12-10T03:34:30;115.00;;;32.60;;
16393;SDS011;8306;51.128;4.476;2022-12-10T03:36:57;114.40;;;32.87;;
16393;SDS011;8306;51.128;4.476;2022-12-10T03:39:23;108.17;;;32.20;;
16393;SDS011;8306;51.128;4.476;2022-12-10T03:41:50;109.90;;;31.83;;
16393;SDS011;8306;51.128;4.476;2022-12-10T03:44:32;107.90;;;31.77;;
16393;SDS011;8306;51.128;4.476;2022-12-10T03:46:58;107.47;;;31.37;;
16393;SDS011;8306;51.128;4.476;2022-12-10T03:49:24;115.27;;;32.37;;
16393;SDS011;8306;51.128;4.476;2022-12-10T03:51:51;112.27;;;33.23;;
16393;SDS011;8306;51.128;4.476;2022-12-10T03:54:17;118.07;;;33.73;;
16393;SDS011;8306;51.128;4.476;2022-12-10T03:56:44;137.93;;;34.27;;
16393;SDS011;8306;51.128;4.476;2022-12-10T03:59:10;111.63;;;32.43;;
16393;SDS011;8306;51.128;4.476;2022-12-10T04:01:37;98.73;;;32.33;;
16393;SDS011;8306;51.128;4.476;2022-12-10T04:04:04;125.70;;;33.57;;
16393;SDS011;8306;51.128;4.476;2022-12-10T04:06:30;123.70;;;35.03;;
16393;SDS011;8306;51.128;4.476;2022-12-10T04:08:56;118.37;;;33.30;;
16393;SDS011;8306;51.128;4.476;2022-12-10T04:11:23;111.73;;;31.73;;
16393;SDS011;8306;51.128;4.476;2022-12-10T04:13:50;132.67;;;31.00;;
16393;SDS011;8306;51.128;4.476;2022-12-10T04:16:34;128.67;;;29.53;;
16393;SDS011;8306;51.128;4.476;2022-12-10T04:19:07;109.40;;;29.77;;
16393;SDS011;8306;51.128;4.476;2022-12-10T04:21:30;87.67;;;29.73;;
16393;SDS011;8306;51.128;4.476;2022-12-10T04:24:14;103.80;;;28.90;;
16393;SDS011;8306;51.128;4.476;2022-12-10T04:27:00;136.77;;;31.53;;
16393;SDS011;8306;51.128;4.476;2022-12-10T04:29:26;109.40;;;29.83;;
16393;SDS011;8306;51.128;4.476;2022-12-10T04:31:52;85.40;;;27.40;;
16393;SDS011;8306;51.128;4.476;2022-12-10T04:34:18;82.97;;;24.50;;
16393;SDS011;8306;51.128;4.476;2022-12-10T04:36:45;108.50;;;29.23;;
16393;SDS011;8306;51.128;4.476;2022-12-10T04:39:11;86.93;;;28.30;;
16393;SDS011;8306;51.128;4.476;2022-12-10T04:41:41;116.97;;;30.17;;
16393;SDS011;8306;51.128;4.476;2022-12-10T04:44:07;97.50;;;28.17;;
16393;SDS011;8306;51.128;4.476;2022-12-10T04:46:33;119.60;;;29.87;;
16393;SDS011;8306;51.128;4.476;2022-12-10T04:49:00;100.80;;;27.67;;
16393;SDS011;8306;51.128;4.476;2022-12-10T04:51:26;100.83;;;26.07;;
16393;SDS011;8306;51.128;4.476;2022-12-10T04:53:53;124.93;;;28.60;;
16393;SDS011;8306;51.128;4.476;2022-12-10T04:56:19;110.37;;;28.37;;
16393;SDS011;8306;51.128;4.476;2022-12-10T04:58:46;111.60;;;28.10;;
16393;SDS011;8306;51.128;4.476;2022-12-10T05:01:12;78.60;;;26.47;;
16393;SDS011;8306;51.128;4.476;2022-12-10T05:03:39;108.00;;;29.47;;
16393;SDS011;8306;51.128;4.476;2022-12-10T05:06:06;139.33;;;31.87;;
16393;SDS011;8306;51.128;4.476;2022-12-10T05:08:32;106.47;;;30.60;;
16393;SDS011;8306;51.128;4.476;2022-12-10T05:11:05;111.20;;;29.93;;
16393;SDS011;8306;51.128;4.476;2022-12-10T05:13:28;152.20;;;31.17;;
16393;SDS011;8306;51.128;4.476;2022-12-10T05:15:54;123.27;;;31.60;;
16393;SDS011;8306;51.128;4.476;2022-12-10T05:18:21;111.90;;;31.00;;
16393;SDS011;8306;51.128;4.476;2022-12-10T05:20:47;97.23;;;29.17;;
16393;SDS011;8306;51.128;4.476;2022-12-10T05:23:14;113.10;;;29.50;;
16393;SDS011;8306;51.128;4.476;2022-12-10T05:25:58;96.17;;;28.40;;
16393;SDS011;8306;51.128;4.476;2022-12-10T05:28:34;125.20;;;27.97;;
16393;SDS011;8306;51.128;4.476;2022-12-10T05:30:59;121.30;;;29.50;;
16393;SDS011;8306;51.128;4.476;2022-12-10T05:33:26;115.17;;;28.30;;
16393;SDS011;8306;51.128;4.476;2022-12-10T05:35:56;114.23;;;28.83;;
16393;SDS011;8306;51.128;4.476;2022-12-10T05:38:21;112.57;;;27.93;;
16393;SDS011;8306;51.128;4.476;2022-12-10T05:40:48;139.77;;;30.27;;
16393;SDS011;8306;51.128;4.476;2022-12-10T05:43:14;141.30;;;28.13;;
16393;SDS011;8306;51.128;4.476;2022-12-10T05:45:41;130.13;;;28.30;;
16393;SDS011;8306;51.128;4.476;2022-12-10T05:48:09;140.50;;;29.20;;
16393;SDS011;8306;51.128;4.476;2022-12-10T05:50:34;129.40;;;30.13;;
16393;SDS011;8306;51.128;4.476;2022-12-10T05:53:00;121.10;;;28.17;;
16393;SDS011;8306;51.128;4.476;2022-12-10T05:55:27;110.33;;;27.93;;
16393;SDS011;8306;51.128;4.476;2022-12-10T05:57:53;119.83;;;28.50;;
16393;SDS011;8306;51.128;4.476;2022-12-10T06:00:20;138.47;;;26.90;;
16393;SDS011;8306;51.128;4.476;2022-12-10T06:02:46;149.97;;;26.17;;
16393;SDS011;8306;51.128;4.476;2022-12-10T06:05:13;105.67;;;25.13;;
16393;SDS011;8306;51.128;4.476;2022-12-10T06:07:39;151.50;;;28.30;;
16393;SDS011;8306;51.128;4.476;2022-12-10T06:10:05;120.80;;;29.53;;
16393;SDS011;8306;51.128;4.476;2022-12-10T06:12:32;120.37;;;27.27;;
16393;SDS011;8306;51.128;4.476;2022-12-10T06:14:58;160.93;;;26.80;;
16393;SDS011;8306;51.128;4.476;2022-12-10T06:17:25;143.33;;;25.93;;
16393;SDS011;8306;51.128;4.476;2022-12-10T06:19:51;145.00;;;25.47;;
16393;SDS011;8306;51.128;4.476;2022-12-10T06:22:18;136.67;;;27.03;;
16393;SDS011;8306;51.128;4.476;2022-12-10T06:24:44;178.50;;;30.53;;
16393;SDS011;8306;51.128;4.476;2022-12-10T06:27:11;141.40;;;30.13;;
16393;SDS011;8306;51.128;4.476;2022-12-10T06:29:37;91.23;;;26.50;;
16393;SDS011;8306;51.128;4.476;2022-12-10T06:32:04;88.20;;;25.97;;
16393;SDS011;8306;51.128;4.476;2022-12-10T06:34:30;108.77;;;26.07;;
16393;SDS011;8306;51.128;4.476;2022-12-10T06:36:57;116.53;;;25.70;;
16393;SDS011;8306;51.128;4.476;2022-12-10T06:39:23;122.70;;;28.20;;
16393;SDS011;8306;51.128;4.476;2022-12-10T06:41:50;110.07;;;26.00;;
16393;SDS011;8306;51.128;4.476;2022-12-10T06:44:16;113.23;;;27.80;;
16393;SDS011;8306;51.128;4.476;2022-12-10T06:46:43;145.37;;;31.60;;
16393;SDS011;8306;51.128;4.476;2022-12-10T06:49:09;130.10;;;28.47;;
16393;SDS011;8306;51.128;4.476;2022-12-10T06:51:36;96.23;;;26.67;;
16393;SDS011;8306;51.128;4.476;2022-12-10T06:54:02;98.60;;;23.80;;
16393;SDS011;8306;51.128;4.476;2022-12-10T06:56:29;95.67;;;24.87;;
16393;SDS011;8306;51.128;4.476;2022-12-10T06:58:55;96.57;;;23.83;;
16393;SDS011;8306;51.128;4.476;2022-12-10T07:01:22;91.63;;;24.73;;
16393;SDS011;8306;51.128;4.476;2022-12-10T07:03:49;113.00;;;26.67;;
16393;SDS011;8306;51.128;4.476;2022-12-10T07:06:15;113.10;;;24.17;;
16393;SDS011;8306;51.128;4.476;2022-12-10T07:08:41;89.87;;;24.20;;
16393;SDS011;8306;51.128;4.476;2022-12-10T07:11:08;88.63;;;23.67;;
16393;SDS011;8306;51.128;4.476;2022-12-10T07:13:34;71.20;;;22.60;;
16393;SDS011;8306;51.128;4.476;2022-12-10T07:16:01;74.37;;;23.83;;
16393;SDS011;8306;51.128;4.476;2022-12-10T07:18:27;91.73;;;24.13;;
16393;SDS011;8306;51.128;4.476;2022-12-10T07:20:53;78.67;;;21.40;;
16393;SDS011;8306;51.128;4.476;2022-12-10T07:23:20;88.57;;;25.90;;
16393;SDS011;8306;51.128;4.476;2022-12-10T07:25:46;79.17;;;22.23;;
16393;SDS011;8306;51.128;4.476;2022-12-10T07:28:13;120.17;;;26.30;;
16393;SDS011;8306;51.128;4.476;2022-12-10T07:30:39;141.00;;;24.90;;
16393;SDS011;8306;51.128;4.476;2022-12-10T07:33:06;69.03;;;23.60;;
16393;SDS011;8306;51.128;4.476;2022-12-10T07:35:32;102.80;;;24.67;;
16393;SDS011;8306;51.128;4.476;2022-12-10T07:37:59;81.33;;;24.30;;
16393;SDS011;8306;51.128;4.476;2022-12-10T07:40:25;105.07;;;25.27;;
16393;SDS011;8306;51.128;4.476;2022-12-10T07:42:52;122.23;;;25.93;;
16393;SDS011;8306;51.128;4.476;2022-12-10T07:45:18;89.03;;;25.97;;
16393;SDS011;8306;51.128;4.476;2022-12-10T07:47:45;138.30;;;26.40;;
16393;SDS011;8306;51.128;4.476;2022-12-10T07:50:11;110.13;;;24.63;;
16393;SDS011;8306;51.128;4.476;2022-12-10T07:52:38;81.67;;;24.33;;
16393;SDS011;8306;51.128;4.476;2022-12-10T07:55:04;87.83;;;23.17;;
16393;SDS011;8306;51.128;4.476;2022-12-10T07:57:31;87.17;;;22.27;;
16393;SDS011;8306;51.128;4.476;2022-12-10T07:59:57;88.63;;;24.70;;
16393;SDS011;8306;51.128;4.476;2022-12-10T08:02:24;70.50;;;22.87;;
16393;SDS011;8306;51.128;4.476;2022-12-10T08:04:50;99.33;;;24.07;;
16393;SDS011;8306;51.128;4.476;2022-12-10T08:07:17;81.23;;;23.53;;
16393;SDS011;8306;51.128;4.476;2022-12-10T08:09:43;72.13;;;22.00;;
16393;SDS011;8306;51.128;4.476;2022-12-10T08:12:10;80.23;;;23.40;;
16393;SDS011;8306;51.128;4.476;2022-12-10T08:14:36;66.57;;;22.43;;
16393;SDS011;8306;51.128;4.476;2022-12-10T08:17:02;94.70;;;23.57;;
16393;SDS011;8306;51.128;4.476;2022-12-10T08:19:29;84.07;;;23.27;;
16393;SDS011;8306;51.128;4.476;2022-12-10T08:21:55;118.73;;;24.87;;
16393;SDS011;8306;51.128;4.476;2022-12-10T08:24:22;89.00;;;24.93;;
16393;SDS011;8306;51.128;4.476;2022-12-10T08:26:48;73.77;;;21.97;;
16393;SDS011;8306;51.128;4.476;2022-12-10T08:29:15;109.17;;;25.37;;
16393;SDS011;8306;51.128;4.476;2022-12-10T08:31:41;72.47;;;23.33;;
16393;SDS011;8306;51.128;4.476;2022-12-10T08:34:15;108.50;;;25.87;;
16393;SDS011;8306;51.128;4.476;2022-12-10T08:36:41;93.80;;;25.23;;
16393;SDS011;8306;51.128;4.476;2022-12-10T08:39:07;109.17;;;26.27;;
16393;SDS011;8306;51.128;4.476;2022-12-10T08:41:33;87.10;;;24.17;;
16393;SDS011;8306;51.128;4.476;2022-12-10T08:44:00;87.40;;;24.03;;
16393;SDS011;8306;51.128;4.476;2022-12-10T08:46:26;139.37;;;28.97;;
16393;SDS011;8306;51.128;4.476;2022-12-10T08:48:53;138.40;;;27.27;;
16393;SDS011;8306;51.128;4.476;2022-12-10T08:51:19;86.83;;;24.40;;
16393;SDS011;8306;51.128;4.476;2022-12-10T08:53:46;104.40;;;24.90;;
16393;SDS011;8306;51.128;4.476;2022-12-10T08:56:12;98.67;;;24.97;;
16393;SDS011;8306;51.128;4.476;2022-12-10T08:58:39;107.90;;;24.60;;
16393;SDS011;8306;51.128;4.476;2022-12-10T09:01:12;102.60;;;25.40;;
16393;SDS011;8306;51.128;4.476;2022-12-10T09:03:38;135.00;;;25.73;;
16393;SDS011;8306;51.128;4.476;2022-12-10T09:06:05;127.27;;;28.57;;
16393;SDS011;8306;51.128;4.476;2022-12-10T09:08:31;153.90;;;26.87;;
16393;SDS011;8306;51.128;4.476;2022-12-10T09:10:57;98.57;;;24.13;;
16393;SDS011;8306;51.128;4.476;2022-12-10T09:13:24;111.27;;;25.60;;
16393;SDS011;8306;51.128;4.476;2022-12-10T09:15:50;69.20;;;24.77;;
16393;SDS011;8306;51.128;4.476;2022-12-10T09:18:19;107.20;;;25.03;;
16393;SDS011;8306;51.128;4.476;2022-12-10T09:20:45;89.17;;;26.73;;
16393;SDS011;8306;51.128;4.476;2022-12-10T09:23:12;78.93;;;25.37;;
16393;SDS011;8306;51.128;4.476;2022-12-10T09:25:38;84.00;;;26.10;;
16393;SDS011;8306;51.128;4.476;2022-12-10T09:28:05;88.57;;;27.60;;
16393;SDS011;8306;51.128;4.476;2022-12-10T09:30:31;77.13;;;25.60;;
16393;SDS011;8306;51.128;4.476;2022-12-10T09:32:58;111.97;;;30.03;;
16393;SDS011;8306;51.128;4.476;2022-12-10T09:35:24;87.10;;;28.37;;
16393;SDS011;8306;51.128;4.476;2022-12-10T09:37:51;102.17;;;28.37;;
16393;SDS011;8306;51.128;4.476;2022-12-10T09:40:18;87.93;;;26.97;;
16393;SDS011;8306;51.128;4.476;2022-12-10T09:42:47;117.10;;;28.80;;
16393;SDS011;8306;51.128;4.476;2022-12-10T09:48:13;113.23;;;26.50;;
16393;SDS011;8306;51.128;4.476;2022-12-10T09:53:21;107.83;;;28.57;;
16393;SDS011;8306;51.128;4.476;2022-12-10T09:55:48;71.47;;;24.80;;
16393;SDS011;8306;51.128;4.476;2022-12-10T09:58:16;86.10;;;26.50;;
16393;SDS011;8306;51.128;4.476;2022-12-10T10:00:43;79.47;;;26.03;;
16393;SDS011;8306;51.128;4.476;2022-12-10T10:03:13;78.23;;;25.17;;
16393;SDS011;8306;51.128;4.476;2022-12-10T10:05:40;85.67;;;25.77;;
16393;SDS011;8306;51.128;4.476;2022-12-10T10:08:12;83.03;;;26.57;;
16393;SDS011;8306;51.128;4.476;2022-12-10T10:10:35;69.67;;;26.30;;
16393;SDS011;8306;51.128;4.476;2022-12-10T10:15:34;67.77;;;25.13;;
16393;SDS011;8306;51.128;4.476;2022-12-10T10:18:04;69.13;;;24.87;;
16393;SDS011;8306;51.128;4.476;2022-12-10T10:20:29;97.17;;;24.37;;
16393;SDS011;8306;51.128;4.476;2022-12-10T10:22:55;78.20;;;23.60;;
16393;SDS011;8306;51.128;4.476;2022-12-10T10:25:22;84.67;;;24.47;;
16393;SDS011;8306;51.128;4.476;2022-12-10T10:27:48;70.00;;;22.03;;
16393;SDS011;8306;51.128;4.476;2022-12-10T10:30:18;63.13;;;22.00;;
16393;SDS011;8306;51.128;4.476;2022-12-10T10:35:19;73.90;;;22.03;;
16393;SDS011;8306;51.128;4.476;2022-12-10T10:37:40;69.77;;;24.33;;
16393;SDS011;8306;51.128;4.476;2022-12-10T10:40:08;72.73;;;24.60;;
16393;SDS011;8306;51.128;4.476;2022-12-10T10:45:06;78.33;;;22.67;;
16393;SDS011;8306;51.128;4.476;2022-12-10T10:47:30;69.00;;;21.47;;
16393;SDS011;8306;51.128;4.476;2022-12-10T10:49:55;67.10;;;22.33;;
16393;SDS011;8306;51.128;4.476;2022-12-10T10:52:22;67.33;;;22.17;;
16393;SDS011;8306;51.128;4.476;2022-12-10T10:54:48;91.90;;;24.17;;
16393;SDS011;8306;51.128;4.476;2022-12-10T10:57:25;59.43;;;22.53;;
16393;SDS011;8306;51.128;4.476;2022-12-10T10:59:54;62.77;;;23.40;;
16393;SDS011;8306;51.128;4.476;2022-12-10T11:02:24;66.63;;;22.60;;
16393;SDS011;8306;51.128;4.476;2022-12-10T11:04:57;71.47;;;22.93;;
16393;SDS011;8306;51.128;4.476;2022-12-10T11:07:34;55.73;;;21.90;;
16393;SDS011;8306;51.128;4.476;2022-12-10T11:09:51;51.57;;;21.97;;
16393;SDS011;8306;51.128;4.476;2022-12-10T11:15:01;89.57;;;23.67;;
16393;SDS011;8306;51.128;4.476;2022-12-10T11:17:27;66.50;;;22.57;;
16393;SDS011;8306;51.128;4.476;2022-12-10T11:20:01;59.43;;;21.73;;
16393;SDS011;8306;51.128;4.476;2022-12-10T11:22:30;76.77;;;24.07;;
16393;SDS011;8306;51.128;4.476;2022-12-10T11:24:55;59.23;;;22.37;;
16393;SDS011;8306;51.128;4.476;2022-12-10T11:27:29;66.50;;;23.47;;
16393;SDS011;8306;51.128;4.476;2022-12-10T11:37:34;67.63;;;24.27;;
16393;SDS011;8306;51.128;4.476;2022-12-10T11:40:11;61.23;;;23.77;;
16393;SDS011;8306;51.128;4.476;2022-12-10T11:50:49;48.03;;;20.00;;
16393;SDS011;8306;51.128;4.476;2022-12-10T11:56:09;53.80;;;21.97;;
16393;SDS011;8306;51.128;4.476;2022-12-10T11:58:35;54.97;;;22.70;;
16393;SDS011;8306;51.128;4.476;2022-12-10T12:09:29;41.97;;;19.77;;
16393;SDS011;8306;51.128;4.476;2022-12-10T12:15:56;56.27;;;21.83;;
16393;SDS011;8306;51.128;4.476;2022-12-10T12:17:36;51.60;;;22.07;;
16393;SDS011;8306;51.128;4.476;2022-12-10T12:20:23;52.43;;;21.00;;
16393;SDS011;8306;51.128;4.476;2022-12-10T12:22:28;47.07;;;21.23;;
16393;SDS011;8306;51.128;4.476;2022-12-10T12:24:57;36.13;;;19.33;;
16393;SDS011;8306;51.128;4.476;2022-12-10T12:27:37;38.27;;;19.53;;
16393;SDS011;8306;51.128;4.476;2022-12-10T12:32:44;43.90;;;19.17;;
16393;SDS011;8306;51.128;4.476;2022-12-10T12:35:11;35.50;;;17.90;;
16393;SDS011;8306;51.128;4.476;2022-12-10T12:37:40;35.87;;;18.07;;
16393;SDS011;8306;51.128;4.476;2022-12-10T12:40:12;44.70;;;20.00;;
16393;SDS011;8306;51.128;4.476;2022-12-10T12:45:16;47.43;;;19.83;;
16393;SDS011;8306;51.128;4.476;2022-12-10T12:47:48;47.17;;;18.83;;
16393;SDS011;8306;51.128;4.476;2022-12-10T12:53:08;39.67;;;18.90;;
16393;SDS011;8306;51.128;4.476;2022-12-10T12:58:48;62.43;;;23.97;;
16393;SDS011;8306;51.128;4.476;2022-12-10T13:01:37;48.23;;;22.03;;
16393;SDS011;8306;51.128;4.476;2022-12-10T13:04:13;44.70;;;22.63;;
16393;SDS011;8306;51.128;4.476;2022-12-10T13:06:40;46.60;;;21.30;;
16393;SDS011;8306;51.128;4.476;2022-12-10T13:37:34;57.97;;;20.67;;
16393;SDS011;8306;51.128;4.476;2022-12-10T13:40:12;56.37;;;22.47;;
16393;SDS011;8306;51.128;4.476;2022-12-10T13:42:33;42.00;;;20.70;;
16393;SDS011;8306;51.128;4.476;2022-12-10T13:47:50;52.00;;;21.03;;
16393;SDS011;8306;51.128;4.476;2022-12-10T13:53:18;40.50;;;20.83;;
16393;SDS011;8306;51.128;4.476;2022-12-10T14:06:36;47.97;;;20.43;;
16393;SDS011;8306;51.128;4.476;2022-12-10T14:11:32;42.00;;;19.23;;
16393;SDS011;8306;51.128;4.476;2022-12-10T14:13:55;39.07;;;17.77;;
16393;SDS011;8306;51.128;4.476;2022-12-10T14:16:21;34.37;;;18.47;;
16393;SDS011;8306;51.128;4.476;2022-12-10T14:18:51;33.63;;;17.70;;
16393;SDS011;8306;51.128;4.476;2022-12-10T14:21:14;31.77;;;16.77;;
16393;SDS011;8306;51.128;4.476;2022-12-10T14:23:47;38.60;;;17.67;;
16393;SDS011;8306;51.128;4.476;2022-12-10T14:26:16;39.03;;;18.20;;
16393;SDS011;8306;51.128;4.476;2022-12-10T14:28:54;31.03;;;16.63;;
16393;SDS011;8306;51.128;4.476;2022-12-10T14:31:21;42.27;;;17.57;;
16393;SDS011;8306;51.128;4.476;2022-12-10T14:33:46;38.33;;;18.43;;
16393;SDS011;8306;51.128;4.476;2022-12-10T14:36:16;33.53;;;16.80;;
16393;SDS011;8306;51.128;4.476;2022-12-10T14:38:42;38.37;;;18.57;;
16393;SDS011;8306;51.128;4.476;2022-12-10T14:41:08;35.93;;;18.53;;
16393;SDS011;8306;51.128;4.476;2022-12-10T14:43:38;40.63;;;18.10;;
16393;SDS011;8306;51.128;4.476;2022-12-10T14:46:04;47.30;;;20.27;;
16393;SDS011;8306;51.128;4.476;2022-12-10T14:48:30;38.83;;;17.37;;
16393;SDS011;8306;51.128;4.476;2022-12-10T14:51:03;40.00;;;18.57;;
16393;SDS011;8306;51.128;4.476;2022-12-10T14:53:31;44.73;;;19.20;;
16393;SDS011;8306;51.128;4.476;2022-12-10T14:55:57;39.10;;;19.23;;
16393;SDS011;8306;51.128;4.476;2022-12-10T14:58:35;42.83;;;19.97;;
16393;SDS011;8306;51.128;4.476;2022-12-10T15:01:04;42.87;;;20.67;;
16393;SDS011;8306;51.128;4.476;2022-12-10T15:03:31;44.37;;;20.03;;
16393;SDS011;8306;51.128;4.476;2022-12-10T15:05:57;50.43;;;20.67;;
16393;SDS011;8306;51.128;4.476;2022-12-10T15:08:23;43.77;;;19.53;;
16393;SDS011;8306;51.128;4.476;2022-12-10T15:10:50;54.73;;;20.10;;
16393;SDS011;8306;51.128;4.476;2022-12-10T15:13:20;61.23;;;21.60;;
16393;SDS011;8306;51.128;4.476;2022-12-10T15:15:48;47.40;;;19.50;;
16393;SDS011;8306;51.128;4.476;2022-12-10T15:18:15;53.60;;;20.77;;
16393;SDS011;8306;51.128;4.476;2022-12-10T15:23:20;50.77;;;20.20;;
16393;SDS011;8306;51.128;4.476;2022-12-10T15:25:57;40.13;;;19.57;;
16393;SDS011;8306;51.128;4.476;2022-12-10T15:28:22;45.23;;;19.27;;
16393;SDS011;8306;51.128;4.476;2022-12-10T15:30:47;55.00;;;20.80;;
16393;SDS011;8306;51.128;4.476;2022-12-10T15:33:21;55.63;;;20.80;;
16393;SDS011;8306;51.128;4.476;2022-12-10T15:35:43;54.10;;;19.07;;
16393;SDS011;8306;51.128;4.476;2022-12-10T15:38:12;51.03;;;18.67;;
16393;SDS011;8306;51.128;4.476;2022-12-10T15:40:39;44.80;;;18.90;;
16393;SDS011;8306;51.128;4.476;2022-12-10T15:43:13;53.33;;;20.33;;
16393;SDS011;8306;51.128;4.476;2022-12-10T15:45:49;44.43;;;19.37;;
16393;SDS011;8306;51.128;4.476;2022-12-10T15:48:16;48.00;;;18.83;;
16393;SDS011;8306;51.128;4.476;2022-12-10T15:50:43;61.90;;;20.77;;
16393;SDS011;8306;51.128;4.476;2022-12-10T15:53:12;51.43;;;20.60;;
16393;SDS011;8306;51.128;4.476;2022-12-10T15:55:38;57.27;;;20.87;;
16393;SDS011;8306;51.128;4.476;2022-12-10T15:58:09;49.60;;;19.93;;
16393;SDS011;8306;51.128;4.476;2022-12-10T16:00:31;60.73;;;22.43;;
16393;SDS011;8306;51.128;4.476;2022-12-10T16:07:58;53.23;;;21.73;;
16393;SDS011;8306;51.128;4.476;2022-12-10T16:10:41;48.93;;;20.23;;
16393;SDS011;8306;51.128;4.476;2022-12-10T16:13:30;60.53;;;21.83;;
16393;SDS011;8306;51.128;4.476;2022-12-10T16:15:43;61.07;;;23.43;;
16393;SDS011;8306;51.128;4.476;2022-12-10T16:18:09;60.27;;;23.33;;
16393;SDS011;8306;51.128;4.476;2022-12-10T16:20:35;61.60;;;23.83;;
16393;SDS011;8306;51.128;4.476;2022-12-10T16:23:01;66.20;;;23.17;;
16393;SDS011;8306;51.128;4.476;2022-12-10T16:25:29;70.53;;;21.63;;
16393;SDS011;8306;51.128;4.476;2022-12-10T16:27:55;61.03;;;21.27;;
16393;SDS011;8306;51.128;4.476;2022-12-10T16:30:22;56.23;;;22.63;;
16393;SDS011;8306;51.128;4.476;2022-12-10T16:32:59;70.63;;;23.47;;
16393;SDS011;8306;51.128;4.476;2022-12-10T16:35:25;64.27;;;22.30;;
16393;SDS011;8306;51.128;4.476;2022-12-10T16:37:52;60.57;;;21.23;;
16393;SDS011;8306;51.128;4.476;2022-12-10T16:40:18;56.93;;;22.00;;